sensor_id;sensor_type;location;lat;lon;timestamp;P1;durP1;ratioP1;P2;durP2;ratioP2
39846;SDS011;25517;52.422;10.782;2023-06-22T00:01:48;13.32;;;11.93;;
39846;SDS011;25517;52.422;10.782;2023-06-22T00:04:14;13.15;;;11.70;;
39846;SDS011;25517;52.422;10.782;2023-06-22T00:06:39;16.70;;;12.38;;
39846;SDS011;25517;52.422;10.782;2023-06-22T00:09:05;14.15;;;12.65;;
39846;SDS011;25517;52.422;10.782;2023-06-22T00:11:32;13.60;;;11.50;;
39846;SDS011;25517;52.422;10.782;2023-06-22T00:13:58;16.67;;;13.48;;
39846;SDS011;25517;52.422;10.782;2023-06-22T00:16:24;14.35;;;12.85;;
39846;SDS011;25517;52.422;10.782;2023-06-22T00:18:50;16.35;;;13.45;;
39846;SDS011;25517;52.422;10.782;2023-06-22T00:21:15;15.32;;;13.73;;
39846;SDS011;25517;52.422;10.782;2023-06-22T00:23:41;15.35;;;13.45;;
39846;SDS011;25517;52.422;10.782;2023-06-22T00:26:08;14.55;;;12.98;;
39846;SDS011;25517;52.422;10.782;2023-06-22T00:28:33;15.82;;;12.65;;
39846;SDS011;25517;52.422;10.782;2023-06-22T00:30:59;15.15;;;13.55;;
39846;SDS011;25517;52.422;10.782;2023-06-22T00:33:25;17.52;;;12.80;;
39846;SDS011;25517;52.422;10.782;2023-06-22T00:35:53;14.65;;;12.95;;
39846;SDS011;25517;52.422;10.782;2023-06-22T00:38:19;17.90;;;13.23;;
39846;SDS011;25517;52.422;10.782;2023-06-22T00:40:44;15.10;;;13.43;;
39846;SDS011;25517;52.422;10.782;2023-06-22T00:43:10;15.68;;;13.20;;
39846;SDS011;25517;52.422;10.782;2023-06-22T00:45:35;13.93;;;12.43;;
39846;SDS011;25517;52.422;10.782;2023-06-22T00:48:01;16.27;;;14.00;;
39846;SDS011;25517;52.422;10.782;2023-06-22T00:50:32;15.70;;;14.05;;
39846;SDS011;25517;52.422;10.782;2023-06-22T00:52:59;17.73;;;14.48;;
39846;SDS011;25517;52.422;10.782;2023-06-22T00:55:33;17.70;;;15.40;;
39846;SDS011;25517;52.422;10.782;2023-06-22T00:58:03;16.42;;;14.25;;
39846;SDS011;25517;52.422;10.782;2023-06-22T01:00:32;14.45;;;12.85;;
39846;SDS011;25517;52.422;10.782;2023-06-22T01:02:58;14.55;;;13.05;;
39846;SDS011;25517;52.422;10.782;2023-06-22T01:05:24;16.02;;;13.25;;
39846;SDS011;25517;52.422;10.782;2023-06-22T01:10:30;14.32;;;12.82;;
39846;SDS011;25517;52.422;10.782;2023-06-22T01:13:07;17.90;;;13.43;;
39846;SDS011;25517;52.422;10.782;2023-06-22T01:15:48;15.85;;;12.80;;
39846;SDS011;25517;52.422;10.782;2023-06-22T01:18:22;15.95;;;13.32;;
39846;SDS011;25517;52.422;10.782;2023-06-22T01:20:50;16.80;;;13.85;;
39846;SDS011;25517;52.422;10.782;2023-06-22T01:23:32;17.58;;;14.70;;
39846;SDS011;25517;52.422;10.782;2023-06-22T01:29:11;15.77;;;13.65;;
39846;SDS011;25517;52.422;10.782;2023-06-22T01:31:39;14.90;;;13.30;;
39846;SDS011;25517;52.422;10.782;2023-06-22T01:34:06;15.77;;;13.10;;
39846;SDS011;25517;52.422;10.782;2023-06-22T01:36:33;16.25;;;13.90;;
39846;SDS011;25517;52.422;10.782;2023-06-22T01:39:00;14.00;;;12.50;;
39846;SDS011;25517;52.422;10.782;2023-06-22T01:41:29;14.80;;;12.98;;
39846;SDS011;25517;52.422;10.782;2023-06-22T01:43:56;15.57;;;13.02;;
39846;SDS011;25517;52.422;10.782;2023-06-22T01:46:22;14.55;;;13.00;;
39846;SDS011;25517;52.422;10.782;2023-06-22T01:48:49;13.98;;;12.48;;
39846;SDS011;25517;52.422;10.782;2023-06-22T01:51:15;17.75;;;14.75;;
39846;SDS011;25517;52.422;10.782;2023-06-22T01:53:41;19.33;;;13.70;;
39846;SDS011;25517;52.422;10.782;2023-06-22T01:56:07;16.15;;;13.75;;
39846;SDS011;25517;52.422;10.782;2023-06-22T01:58:33;15.52;;;13.82;;
39846;SDS011;25517;52.422;10.782;2023-06-22T02:01:11;15.40;;;13.45;;
39846;SDS011;25517;52.422;10.782;2023-06-22T02:03:43;15.15;;;13.55;;
39846;SDS011;25517;52.422;10.782;2023-06-22T02:06:17;16.88;;;14.52;;
39846;SDS011;25517;52.422;10.782;2023-06-22T02:08:55;15.93;;;13.95;;
39846;SDS011;25517;52.422;10.782;2023-06-22T02:11:25;15.70;;;13.30;;
39846;SDS011;25517;52.422;10.782;2023-06-22T02:13:52;16.80;;;14.27;;
39846;SDS011;25517;52.422;10.782;2023-06-22T02:16:18;15.38;;;13.30;;
39846;SDS011;25517;52.422;10.782;2023-06-22T02:18:48;17.95;;;13.40;;
39846;SDS011;25517;52.422;10.782;2023-06-22T02:21:15;15.70;;;13.07;;
39846;SDS011;25517;52.422;10.782;2023-06-22T02:23:42;15.68;;;12.77;;
39846;SDS011;25517;52.422;10.782;2023-06-22T02:26:07;15.13;;;13.50;;
39846;SDS011;25517;52.422;10.782;2023-06-22T02:28:33;16.48;;;13.98;;
39846;SDS011;25517;52.422;10.782;2023-06-22T02:30:58;16.60;;;13.77;;
39846;SDS011;25517;52.422;10.782;2023-06-22T02:33:24;15.13;;;13.55;;
39846;SDS011;25517;52.422;10.782;2023-06-22T02:35:50;15.50;;;13.50;;
39846;SDS011;25517;52.422;10.782;2023-06-22T02:38:15;17.48;;;14.82;;
39846;SDS011;25517;52.422;10.782;2023-06-22T02:40:42;16.75;;;13.80;;
39846;SDS011;25517;52.422;10.782;2023-06-22T02:43:07;15.35;;;13.73;;
39846;SDS011;25517;52.422;10.782;2023-06-22T02:45:33;15.52;;;13.52;;
39846;SDS011;25517;52.422;10.782;2023-06-22T02:47:58;15.63;;;13.52;;
39846;SDS011;25517;52.422;10.782;2023-06-22T02:50:24;17.52;;;14.55;;
39846;SDS011;25517;52.422;10.782;2023-06-22T02:52:50;16.08;;;14.00;;
39846;SDS011;25517;52.422;10.782;2023-06-22T02:55:15;15.88;;;13.93;;
39846;SDS011;25517;52.422;10.782;2023-06-22T02:57:41;16.40;;;14.02;;
39846;SDS011;25517;52.422;10.782;2023-06-22T03:00:09;17.58;;;15.38;;
39846;SDS011;25517;52.422;10.782;2023-06-22T03:02:44;19.88;;;16.02;;
39846;SDS011;25517;52.422;10.782;2023-06-22T03:05:11;17.33;;;14.50;;
39846;SDS011;25517;52.422;10.782;2023-06-22T03:07:41;17.45;;;14.75;;
39846;SDS011;25517;52.422;10.782;2023-06-22T03:10:08;19.45;;;15.40;;
39846;SDS011;25517;52.422;10.782;2023-06-22T03:12:34;22.67;;;15.63;;
39846;SDS011;25517;52.422;10.782;2023-06-22T03:15:00;16.02;;;14.30;;
39846;SDS011;25517;52.422;10.782;2023-06-22T03:17:26;17.80;;;15.27;;
39846;SDS011;25517;52.422;10.782;2023-06-22T03:19:51;18.80;;;14.85;;
39846;SDS011;25517;52.422;10.782;2023-06-22T03:22:17;19.00;;;15.43;;
39846;SDS011;25517;52.422;10.782;2023-06-22T03:24:42;18.20;;;14.63;;
39846;SDS011;25517;52.422;10.782;2023-06-22T03:27:08;17.42;;;14.43;;
39846;SDS011;25517;52.422;10.782;2023-06-22T03:29:33;17.85;;;15.00;;
39846;SDS011;25517;52.422;10.782;2023-06-22T03:31:59;22.73;;;15.15;;
39846;SDS011;25517;52.422;10.782;2023-06-22T03:34:25;17.85;;;14.60;;
39846;SDS011;25517;52.422;10.782;2023-06-22T03:36:50;20.80;;;14.68;;
39846;SDS011;25517;52.422;10.782;2023-06-22T03:39:16;16.98;;;14.00;;
39846;SDS011;25517;52.422;10.782;2023-06-22T03:41:41;17.20;;;12.95;;
39846;SDS011;25517;52.422;10.782;2023-06-22T03:44:07;15.82;;;14.20;;
39846;SDS011;25517;52.422;10.782;2023-06-22T03:46:37;17.37;;;13.97;;
39846;SDS011;25517;52.422;10.782;2023-06-22T03:49:02;17.08;;;14.10;;
39846;SDS011;25517;52.422;10.782;2023-06-22T03:51:28;16.10;;;13.80;;
39846;SDS011;25517;52.422;10.782;2023-06-22T03:53:55;16.48;;;13.43;;
39846;SDS011;25517;52.422;10.782;2023-06-22T13:27:27;13.00;;;8.88;;
39846;SDS011;25517;52.422;10.782;2023-06-22T13:29:53;9.45;;;8.55;;
39846;SDS011;25517;52.422;10.782;2023-06-22T13:32:18;11.30;;;8.40;;
39846;SDS011;25517;52.422;10.782;2023-06-22T13:34:44;11.57;;;9.52;;
39846;SDS011;25517;52.422;10.782;2023-06-22T13:37:09;10.45;;;9.35;;
39846;SDS011;25517;52.422;10.782;2023-06-22T13:39:35;10.32;;;8.13;;
39846;SDS011;25517;52.422;10.782;2023-06-22T13:42:00;8.98;;;8.00;;
39846;SDS011;25517;52.422;10.782;2023-06-22T13:44:26;8.95;;;8.10;;
39846;SDS011;25517;52.422;10.782;2023-06-22T13:46:54;10.18;;;8.63;;
39846;SDS011;25517;52.422;10.782;2023-06-22T13:49:20;8.98;;;8.10;;
39846;SDS011;25517;52.422;10.782;2023-06-22T13:51:46;8.90;;;8.02;;
39846;SDS011;25517;52.422;10.782;2023-06-22T13:54:13;14.85;;;8.55;;
39846;SDS011;25517;52.422;10.782;2023-06-22T13:56:38;11.63;;;8.80;;
39846;SDS011;25517;52.422;10.782;2023-06-22T13:59:04;12.40;;;8.63;;
39846;SDS011;25517;52.422;10.782;2023-06-22T14:01:29;9.25;;;8.45;;
39846;SDS011;25517;52.422;10.782;2023-06-22T14:03:55;14.25;;;8.73;;
39846;SDS011;25517;52.422;10.782;2023-06-22T14:06:20;11.60;;;8.85;;
39846;SDS011;25517;52.422;10.782;2023-06-22T14:08:46;10.38;;;8.63;;
39846;SDS011;25517;52.422;10.782;2023-06-22T14:11:11;9.90;;;8.90;;
39846;SDS011;25517;52.422;10.782;2023-06-22T14:13:37;11.25;;;9.32;;
39846;SDS011;25517;52.422;10.782;2023-06-22T14:16:03;12.63;;;8.60;;
39846;SDS011;25517;52.422;10.782;2023-06-22T14:18:29;9.95;;;8.95;;
39846;SDS011;25517;52.422;10.782;2023-06-22T14:20:55;10.40;;;8.23;;
39846;SDS011;25517;52.422;10.782;2023-06-22T14:23:20;9.10;;;8.30;;
39846;SDS011;25517;52.422;10.782;2023-06-22T14:25:46;9.75;;;8.75;;
39846;SDS011;25517;52.422;10.782;2023-06-22T14:28:11;11.70;;;8.68;;
39846;SDS011;25517;52.422;10.782;2023-06-22T14:30:36;10.23;;;8.57;;
39846;SDS011;25517;52.422;10.782;2023-06-22T14:33:02;10.40;;;8.52;;
39846;SDS011;25517;52.422;10.782;2023-06-22T14:35:28;9.63;;;8.63;;
39846;SDS011;25517;52.422;10.782;2023-06-22T14:37:53;11.10;;;8.82;;
39846;SDS011;25517;52.422;10.782;2023-06-22T14:40:19;10.30;;;9.30;;
39846;SDS011;25517;52.422;10.782;2023-06-22T14:42:44;9.98;;;9.00;;
39846;SDS011;25517;52.422;10.782;2023-06-22T14:45:10;12.55;;;9.30;;
39846;SDS011;25517;52.422;10.782;2023-06-22T14:47:35;13.07;;;9.10;;
39846;SDS011;25517;52.422;10.782;2023-06-22T14:50:01;12.50;;;9.90;;
39846;SDS011;25517;52.422;10.782;2023-06-22T14:52:26;10.05;;;9.05;;
39846;SDS011;25517;52.422;10.782;2023-06-22T14:54:52;16.20;;;9.20;;
39846;SDS011;25517;52.422;10.782;2023-06-22T14:57:18;10.13;;;9.10;;
39846;SDS011;25517;52.422;10.782;2023-06-22T14:59:45;12.57;;;9.30;;
39846;SDS011;25517;52.422;10.782;2023-06-22T15:02:11;10.05;;;9.02;;
39846;SDS011;25517;52.422;10.782;2023-06-22T15:04:37;11.50;;;9.18;;
39846;SDS011;25517;52.422;10.782;2023-06-22T15:07:03;11.13;;;9.75;;
39846;SDS011;25517;52.422;10.782;2023-06-22T15:09:28;12.95;;;10.02;;
39846;SDS011;25517;52.422;10.782;2023-06-22T15:11:54;11.68;;;9.48;;
39846;SDS011;25517;52.422;10.782;2023-06-22T15:14:19;11.25;;;10.05;;
39846;SDS011;25517;52.422;10.782;2023-06-22T15:16:45;13.85;;;9.35;;
39846;SDS011;25517;52.422;10.782;2023-06-22T15:19:11;9.90;;;8.90;;
39846;SDS011;25517;52.422;10.782;2023-06-22T15:21:37;9.93;;;8.52;;
39846;SDS011;25517;52.422;10.782;2023-06-22T15:24:03;12.23;;;8.95;;
39846;SDS011;25517;52.422;10.782;2023-06-22T15:26:29;10.52;;;9.48;;
39846;SDS011;25517;52.422;10.782;2023-06-22T15:28:55;10.95;;;8.77;;
39846;SDS011;25517;52.422;10.782;2023-06-22T15:31:20;11.20;;;9.77;;
39846;SDS011;25517;52.422;10.782;2023-06-22T15:33:46;10.43;;;9.05;;
39846;SDS011;25517;52.422;10.782;2023-06-22T15:36:12;10.00;;;8.50;;
39846;SDS011;25517;52.422;10.782;2023-06-22T15:38:40;10.80;;;9.00;;
39846;SDS011;25517;52.422;10.782;2023-06-22T15:41:06;11.70;;;8.90;;
39846;SDS011;25517;52.422;10.782;2023-06-22T15:43:31;10.32;;;8.30;;
39846;SDS011;25517;52.422;10.782;2023-06-22T15:45:57;11.57;;;9.02;;
39846;SDS011;25517;52.422;10.782;2023-06-22T15:48:22;9.02;;;8.13;;
39846;SDS011;25517;52.422;10.782;2023-06-22T15:50:48;12.45;;;9.18;;
39846;SDS011;25517;52.422;10.782;2023-06-22T15:53:14;10.27;;;9.15;;
39846;SDS011;25517;52.422;10.782;2023-06-22T15:55:39;11.18;;;9.05;;
39846;SDS011;25517;52.422;10.782;2023-06-22T15:58:05;13.60;;;8.88;;
39846;SDS011;25517;52.422;10.782;2023-06-22T16:00:32;12.88;;;8.65;;
39846;SDS011;25517;52.422;10.782;2023-06-22T16:02:57;10.52;;;9.38;;
39846;SDS011;25517;52.422;10.782;2023-06-22T16:05:23;12.55;;;8.70;;
39846;SDS011;25517;52.422;10.782;2023-06-22T16:07:48;11.02;;;9.10;;
39846;SDS011;25517;52.422;10.782;2023-06-22T16:10:14;10.98;;;8.65;;
39846;SDS011;25517;52.422;10.782;2023-06-22T16:12:41;14.25;;;9.10;;
39846;SDS011;25517;52.422;10.782;2023-06-22T16:15:08;10.32;;;9.05;;
39846;SDS011;25517;52.422;10.782;2023-06-22T16:17:34;11.25;;;9.35;;
39846;SDS011;25517;52.422;10.782;2023-06-22T16:20:02;12.07;;;9.57;;
39846;SDS011;25517;52.422;10.782;2023-06-22T16:22:32;12.70;;;9.43;;
39846;SDS011;25517;52.422;10.782;2023-06-22T16:24:58;10.45;;;8.48;;
39846;SDS011;25517;52.422;10.782;2023-06-22T16:27:23;10.80;;;9.13;;
39846;SDS011;25517;52.422;10.782;2023-06-22T16:29:49;11.82;;;9.88;;
39846;SDS011;25517;52.422;10.782;2023-06-22T16:32:15;9.63;;;8.73;;
39846;SDS011;25517;52.422;10.782;2023-06-22T16:34:42;11.90;;;9.20;;
39846;SDS011;25517;52.422;10.782;2023-06-22T16:37:10;10.90;;;9.10;;
39846;SDS011;25517;52.422;10.782;2023-06-22T16:39:36;12.43;;;8.82;;
39846;SDS011;25517;52.422;10.782;2023-06-22T16:42:02;13.30;;;9.88;;
39846;SDS011;25517;52.422;10.782;2023-06-22T16:44:27;16.05;;;10.63;;
39846;SDS011;25517;52.422;10.782;2023-06-22T16:46:53;14.52;;;10.18;;
39846;SDS011;25517;52.422;10.782;2023-06-22T16:49:18;12.77;;;10.32;;
39846;SDS011;25517;52.422;10.782;2023-06-22T16:51:44;12.45;;;10.05;;
39846;SDS011;25517;52.422;10.782;2023-06-22T16:54:09;14.95;;;11.13;;
39846;SDS011;25517;52.422;10.782;2023-06-22T16:56:35;12.07;;;10.63;;
39846;SDS011;25517;52.422;10.782;2023-06-22T16:59:01;13.20;;;11.88;;
39846;SDS011;25517;52.422;10.782;2023-06-22T17:01:26;12.43;;;10.93;;
39846;SDS011;25517;52.422;10.782;2023-06-22T17:04:04;12.63;;;11.32;;
39846;SDS011;25517;52.422;10.782;2023-06-22T17:06:33;16.67;;;12.27;;
39846;SDS011;25517;52.422;10.782;2023-06-22T17:08:59;17.77;;;12.82;;
39846;SDS011;25517;52.422;10.782;2023-06-22T17:11:28;16.08;;;12.30;;
39846;SDS011;25517;52.422;10.782;2023-06-22T17:13:53;14.02;;;12.63;;
39846;SDS011;25517;52.422;10.782;2023-06-22T17:16:19;19.50;;;12.50;;
39846;SDS011;25517;52.422;10.782;2023-06-22T17:18:47;22.42;;;13.45;;
39846;SDS011;25517;52.422;10.782;2023-06-22T17:21:20;16.48;;;10.38;;
39846;SDS011;25517;52.422;10.782;2023-06-22T17:23:46;27.63;;;5.43;;
39846;SDS011;25517;52.422;10.782;2023-06-22T17:26:13;37.45;;;4.72;;
39846;SDS011;25517;52.422;10.782;2023-06-22T17:28:46;61.85;;;5.85;;
39846;SDS011;25517;52.422;10.782;2023-06-22T17:31:15;22.80;;;3.28;;
39846;SDS011;25517;52.422;10.782;2023-06-22T17:33:42;10.55;;;3.58;;
39846;SDS011;25517;52.422;10.782;2023-06-22T17:36:10;17.20;;;5.47;;
39846;SDS011;25517;52.422;10.782;2023-06-22T17:38:40;14.40;;;5.30;;
39846;SDS011;25517;52.422;10.782;2023-06-22T17:41:05;19.77;;;6.60;;
39846;SDS011;25517;52.422;10.782;2023-06-22T17:43:31;20.25;;;6.80;;
39846;SDS011;25517;52.422;10.782;2023-06-22T17:45:57;20.05;;;7.68;;
39846;SDS011;25517;52.422;10.782;2023-06-22T17:48:24;12.50;;;7.38;;
39846;SDS011;25517;52.422;10.782;2023-06-22T17:50:50;18.00;;;7.70;;
39846;SDS011;25517;52.422;10.782;2023-06-22T17:53:16;26.40;;;8.70;;
39846;SDS011;25517;52.422;10.782;2023-06-22T17:55:42;26.60;;;8.00;;
39846;SDS011;25517;52.422;10.782;2023-06-22T17:58:08;14.27;;;6.18;;
39846;SDS011;25517;52.422;10.782;2023-06-22T18:00:33;14.05;;;4.60;;
39846;SDS011;25517;52.422;10.782;2023-06-22T18:03:01;11.30;;;4.95;;
39846;SDS011;25517;52.422;10.782;2023-06-22T18:05:28;8.70;;;3.58;;
39846;SDS011;25517;52.422;10.782;2023-06-22T18:07:53;8.75;;;3.85;;
39846;SDS011;25517;52.422;10.782;2023-06-22T18:10:22;8.82;;;4.60;;
39846;SDS011;25517;52.422;10.782;2023-06-22T18:12:50;13.85;;;5.85;;
39846;SDS011;25517;52.422;10.782;2023-06-22T18:15:16;10.45;;;5.40;;
39846;SDS011;25517;52.422;10.782;2023-06-22T18:17:42;12.55;;;5.30;;
39846;SDS011;25517;52.422;10.782;2023-06-22T18:20:08;10.50;;;4.60;;
39846;SDS011;25517;52.422;10.782;2023-06-22T18:22:35;7.57;;;4.00;;
39846;SDS011;25517;52.422;10.782;2023-06-22T18:25:01;9.43;;;4.15;;
39846;SDS011;25517;52.422;10.782;2023-06-22T18:27:28;9.57;;;4.05;;
39846;SDS011;25517;52.422;10.782;2023-06-22T18:29:55;10.40;;;4.25;;
39846;SDS011;25517;52.422;10.782;2023-06-22T18:32:20;8.50;;;3.88;;
39846;SDS011;25517;52.422;10.782;2023-06-22T18:34:46;8.10;;;3.78;;
39846;SDS011;25517;52.422;10.782;2023-06-22T18:37:13;8.25;;;3.72;;
39846;SDS011;25517;52.422;10.782;2023-06-22T18:39:40;10.43;;;6.25;;
39846;SDS011;25517;52.422;10.782;2023-06-22T18:42:09;11.48;;;6.50;;
39846;SDS011;25517;52.422;10.782;2023-06-22T18:44:35;13.25;;;7.93;;
39846;SDS011;25517;52.422;10.782;2023-06-22T18:49:32;21.98;;;12.70;;
39846;SDS011;25517;52.422;10.782;2023-06-22T18:54:43;20.05;;;14.48;;
39846;SDS011;25517;52.422;10.782;2023-06-22T18:57:13;32.67;;;18.40;;
39846;SDS011;25517;52.422;10.782;2023-06-22T18:59:50;29.10;;;17.17;;
39846;SDS011;25517;52.422;10.782;2023-06-22T19:15:40;28.92;;;17.00;;
39846;SDS011;25517;52.422;10.782;2023-06-22T19:18:20;23.02;;;16.38;;
39846;SDS011;25517;52.422;10.782;2023-06-22T19:21:08;23.58;;;14.90;;
39846;SDS011;25517;52.422;10.782;2023-06-22T19:23:36;18.10;;;13.65;;
39846;SDS011;25517;52.422;10.782;2023-06-22T19:26:13;25.65;;;15.18;;
39846;SDS011;25517;52.422;10.782;2023-06-22T19:28:44;22.33;;;14.10;;
39846;SDS011;25517;52.422;10.782;2023-06-22T19:31:13;22.08;;;14.60;;
39846;SDS011;25517;52.422;10.782;2023-06-22T19:33:40;16.90;;;12.77;;
39846;SDS011;25517;52.422;10.782;2023-06-22T19:36:06;20.70;;;13.48;;
39846;SDS011;25517;52.422;10.782;2023-06-22T19:38:32;22.58;;;13.88;;
39846;SDS011;25517;52.422;10.782;2023-06-22T19:40:58;19.38;;;13.23;;
39846;SDS011;25517;52.422;10.782;2023-06-22T19:43:28;31.40;;;18.58;;
39846;SDS011;25517;52.422;10.782;2023-06-22T19:45:56;29.17;;;19.58;;
39846;SDS011;25517;52.422;10.782;2023-06-22T19:48:26;38.72;;;23.67;;
39846;SDS011;25517;52.422;10.782;2023-06-22T19:50:53;31.90;;;21.08;;
39846;SDS011;25517;52.422;10.782;2023-06-22T19:53:20;37.00;;;21.98;;
39846;SDS011;25517;52.422;10.782;2023-06-22T19:55:46;34.72;;;18.95;;
39846;SDS011;25517;52.422;10.782;2023-06-22T19:58:14;28.05;;;14.68;;
39846;SDS011;25517;52.422;10.782;2023-06-22T20:00:44;30.05;;;13.40;;
39846;SDS011;25517;52.422;10.782;2023-06-22T20:03:25;24.95;;;13.35;;
39846;SDS011;25517;52.422;10.782;2023-06-22T20:05:52;19.58;;;12.38;;
39846;SDS011;25517;52.422;10.782;2023-06-22T20:08:19;20.02;;;11.88;;
39846;SDS011;25517;52.422;10.782;2023-06-22T20:10:45;17.15;;;11.07;;
39846;SDS011;25517;52.422;10.782;2023-06-22T20:15:40;17.23;;;10.48;;
39846;SDS011;25517;52.422;10.782;2023-06-22T20:18:07;17.58;;;10.75;;
39846;SDS011;25517;52.422;10.782;2023-06-22T20:20:35;21.35;;;11.73;;
39846;SDS011;25517;52.422;10.782;2023-06-22T20:23:02;25.67;;;13.35;;
39846;SDS011;25517;52.422;10.782;2023-06-22T20:25:31;21.60;;;13.05;;
39846;SDS011;25517;52.422;10.782;2023-06-22T20:28:10;18.90;;;10.98;;
39846;SDS011;25517;52.422;10.782;2023-06-22T20:30:38;18.20;;;11.05;;
39846;SDS011;25517;52.422;10.782;2023-06-22T20:33:12;23.25;;;10.88;;
39846;SDS011;25517;52.422;10.782;2023-06-22T20:35:51;18.58;;;9.57;;
39846;SDS011;25517;52.422;10.782;2023-06-22T20:38:16;12.85;;;8.30;;
39846;SDS011;25517;52.422;10.782;2023-06-22T20:40:42;18.40;;;8.00;;
39846;SDS011;25517;52.422;10.782;2023-06-22T20:43:07;13.25;;;7.65;;
39846;SDS011;25517;52.422;10.782;2023-06-22T20:45:34;13.07;;;7.75;;
39846;SDS011;25517;52.422;10.782;2023-06-22T20:48:00;15.60;;;8.50;;
39846;SDS011;25517;52.422;10.782;2023-06-22T20:50:25;13.80;;;8.48;;
39846;SDS011;25517;52.422;10.782;2023-06-22T20:52:56;15.63;;;8.98;;
39846;SDS011;25517;52.422;10.782;2023-06-22T20:55:25;15.07;;;8.53;;
39846;SDS011;25517;52.422;10.782;2023-06-22T20:57:51;18.13;;;9.75;;
39846;SDS011;25517;52.422;10.782;2023-06-22T21:00:17;14.70;;;9.48;;
39846;SDS011;25517;52.422;10.782;2023-06-22T21:02:43;24.48;;;11.18;;
39846;SDS011;25517;52.422;10.782;2023-06-22T21:05:09;28.50;;;12.70;;
39846;SDS011;25517;52.422;10.782;2023-06-22T21:07:35;20.48;;;10.55;;
39846;SDS011;25517;52.422;10.782;2023-06-22T21:10:02;23.13;;;11.82;;
39846;SDS011;25517;52.422;10.782;2023-06-22T21:12:28;20.85;;;11.60;;
39846;SDS011;25517;52.422;10.782;2023-06-22T21:14:54;17.92;;;10.43;;
39846;SDS011;25517;52.422;10.782;2023-06-22T21:17:19;19.88;;;11.30;;
39846;SDS011;25517;52.422;10.782;2023-06-22T21:19:46;20.05;;;12.38;;
39846;SDS011;25517;52.422;10.782;2023-06-22T21:22:12;26.75;;;13.90;;
39846;SDS011;25517;52.422;10.782;2023-06-22T21:24:38;22.08;;;12.57;;
39846;SDS011;25517;52.422;10.782;2023-06-22T21:27:03;23.50;;;12.10;;
39846;SDS011;25517;52.422;10.782;2023-06-22T21:29:29;22.13;;;13.10;;
39846;SDS011;25517;52.422;10.782;2023-06-22T21:31:54;23.00;;;12.80;;
39846;SDS011;25517;52.422;10.782;2023-06-22T21:34:23;20.98;;;12.50;;
39846;SDS011;25517;52.422;10.782;2023-06-22T21:36:50;29.30;;;15.13;;
39846;SDS011;25517;52.422;10.782;2023-06-22T21:39:15;30.88;;;15.77;;
39846;SDS011;25517;52.422;10.782;2023-06-22T21:41:41;20.65;;;12.88;;
39846;SDS011;25517;52.422;10.782;2023-06-22T21:44:06;29.15;;;15.85;;
39846;SDS011;25517;52.422;10.782;2023-06-22T21:46:32;20.95;;;12.52;;
39846;SDS011;25517;52.422;10.782;2023-06-22T21:48:57;28.27;;;14.95;;
39846;SDS011;25517;52.422;10.782;2023-06-22T21:51:23;21.45;;;13.68;;
39846;SDS011;25517;52.422;10.782;2023-06-22T21:53:48;19.25;;;12.55;;
39846;SDS011;25517;52.422;10.782;2023-06-22T21:56:14;36.97;;;16.42;;
39846;SDS011;25517;52.422;10.782;2023-06-22T21:58:39;27.92;;;14.68;;
39846;SDS011;25517;52.422;10.782;2023-06-22T22:01:05;26.08;;;13.80;;
39846;SDS011;25517;52.422;10.782;2023-06-22T22:03:30;21.90;;;13.40;;
39846;SDS011;25517;52.422;10.782;2023-06-22T22:05:56;24.88;;;13.90;;
39846;SDS011;25517;52.422;10.782;2023-06-22T22:08:22;25.33;;;14.93;;
39846;SDS011;25517;52.422;10.782;2023-06-22T22:10:48;29.98;;;15.40;;
39846;SDS011;25517;52.422;10.782;2023-06-22T22:13:14;26.85;;;14.20;;
39846;SDS011;25517;52.422;10.782;2023-06-22T22:15:40;21.98;;;12.75;;
39846;SDS011;25517;52.422;10.782;2023-06-22T22:18:06;22.92;;;14.20;;
39846;SDS011;25517;52.422;10.782;2023-06-22T22:20:34;28.13;;;16.23;;
39846;SDS011;25517;52.422;10.782;2023-06-22T22:23:00;21.30;;;13.95;;
39846;SDS011;25517;52.422;10.782;2023-06-22T22:25:25;23.15;;;13.00;;
39846;SDS011;25517;52.422;10.782;2023-06-22T22:27:54;18.67;;;12.05;;
39846;SDS011;25517;52.422;10.782;2023-06-22T22:30:20;15.80;;;11.32;;
39846;SDS011;25517;52.422;10.782;2023-06-22T22:32:45;18.38;;;11.95;;
39846;SDS011;25517;52.422;10.782;2023-06-22T22:35:11;15.43;;;11.35;;
39846;SDS011;25517;52.422;10.782;2023-06-22T22:37:39;17.83;;;11.13;;
39846;SDS011;25517;52.422;10.782;2023-06-22T22:40:05;15.13;;;11.98;;
39846;SDS011;25517;52.422;10.782;2023-06-22T22:42:35;19.02;;;12.70;;
39846;SDS011;25517;52.422;10.782;2023-06-22T22:45:01;24.67;;;14.23;;
39846;SDS011;25517;52.422;10.782;2023-06-22T22:49:57;18.92;;;12.23;;
39846;SDS011;25517;52.422;10.782;2023-06-22T22:52:23;18.88;;;11.95;;
39846;SDS011;25517;52.422;10.782;2023-06-22T22:54:49;16.95;;;11.73;;
39846;SDS011;25517;52.422;10.782;2023-06-22T22:57:14;18.48;;;12.27;;
39846;SDS011;25517;52.422;10.782;2023-06-22T22:59:40;25.45;;;14.77;;
39846;SDS011;25517;52.422;10.782;2023-06-22T23:02:05;16.15;;;12.02;;
39846;SDS011;25517;52.422;10.782;2023-06-22T23:04:32;16.38;;;11.93;;
39846;SDS011;25517;52.422;10.782;2023-06-22T23:06:58;16.55;;;11.93;;
39846;SDS011;25517;52.422;10.782;2023-06-22T23:09:24;26.50;;;14.25;;
39846;SDS011;25517;52.422;10.782;2023-06-22T23:11:49;17.88;;;12.35;;
39846;SDS011;25517;52.422;10.782;2023-06-22T23:14:15;18.52;;;11.40;;
39846;SDS011;25517;52.422;10.782;2023-06-22T23:16:41;16.98;;;11.43;;
39846;SDS011;25517;52.422;10.782;2023-06-22T23:19:08;18.80;;;10.63;;
39846;SDS011;25517;52.422;10.782;2023-06-22T23:21:35;19.42;;;12.63;;
39846;SDS011;25517;52.422;10.782;2023-06-22T23:24:00;18.33;;;11.50;;
39846;SDS011;25517;52.422;10.782;2023-06-22T23:26:28;31.35;;;14.82;;
39846;SDS011;25517;52.422;10.782;2023-06-22T23:28:54;20.27;;;11.95;;
39846;SDS011;25517;52.422;10.782;2023-06-22T23:31:20;14.82;;;10.60;;
39846;SDS011;25517;52.422;10.782;2023-06-22T23:33:45;23.65;;;12.38;;
39846;SDS011;25517;52.422;10.782;2023-06-22T23:36:13;18.95;;;11.50;;
39846;SDS011;25517;52.422;10.782;2023-06-22T23:38:39;17.60;;;10.88;;
39846;SDS011;25517;52.422;10.782;2023-06-22T23:41:05;16.85;;;11.27;;
39846;SDS011;25517;52.422;10.782;2023-06-22T23:43:33;16.20;;;11.23;;
39846;SDS011;25517;52.422;10.782;2023-06-22T23:45:58;17.98;;;10.20;;
39846;SDS011;25517;52.422;10.782;2023-06-22T23:48:26;17.00;;;10.75;;
39846;SDS011;25517;52.422;10.782;2023-06-22T23:50:52;18.02;;;11.35;;
39846;SDS011;25517;52.422;10.782;2023-06-22T23:53:18;18.65;;;10.38;;
39846;SDS011;25517;52.422;10.782;2023-06-22T23:55:44;15.48;;;9.43;;
39846;SDS011;25517;52.422;10.782;2023-06-22T23:58:10;18.38;;;12.00;;
